createdAt,value
2018-11-13T00:05:28.819Z,90.45
2018-11-13T00:11:35.528Z,91.44
2018-11-13T00:19:06.386Z,91.34
2018-11-13T00:24:53.570Z,91.52
2018-11-13T00:27:35.939Z,90.90
2018-11-13T00:43:37.296Z,91.96
2018-11-13T00:46:21.468Z,92.14
2018-11-13T00:48:59.518Z,91.68
2018-11-13T00:51:33.632Z,90.90
2018-11-13T00:54:12.031Z,91.23
2018-11-13T00:56:41.449Z,91.65
2018-11-13T00:59:11.462Z,91.30
2018-11-13T01:01:40.620Z,91.19
2018-11-13T01:04:11.360Z,91.52
2018-11-13T01:06:40.575Z,90.94
2018-11-13T01:09:12.120Z,91.29
2018-11-13T01:11:42.900Z,91.87
2018-11-13T01:14:12.508Z,90.39
2018-11-13T01:16:41.818Z,91.51
2018-11-13T01:19:12.163Z,91.06
2018-11-13T01:21:41.625Z,90.80
2018-11-13T01:24:10.926Z,91.36
2018-11-13T01:29:19.614Z,91.51
2018-11-13T01:31:48.857Z,91.75
2018-11-13T01:34:21.310Z,91.30
2018-11-13T01:36:50.629Z,90.92
2018-11-13T01:39:22.936Z,90.91
2018-11-13T01:41:52.297Z,90.73
2018-11-13T01:44:21.462Z,91.23
2018-11-13T01:46:51.355Z,90.95
2018-11-13T01:49:24.582Z,90.62
2018-11-13T01:51:54.313Z,90.68
2018-11-13T01:54:23.471Z,90.58
2018-11-13T01:56:52.614Z,91.04
2018-11-13T01:59:23.679Z,91.19
2018-11-13T02:01:52.858Z,90.37
2018-11-13T02:04:22.051Z,90.00
2018-11-13T02:06:51.516Z,91.55
2018-11-13T02:09:20.727Z,91.15
2018-11-13T02:12:12.093Z,90.83
2018-11-13T02:14:42.423Z,91.66
2018-11-13T02:17:12.789Z,90.39
2018-11-13T02:19:43.240Z,90.70
2018-11-13T02:22:12.387Z,90.79
2018-11-13T02:24:41.577Z,91.32
2018-11-13T02:27:10.782Z,91.64
2018-11-13T02:29:39.927Z,90.70
2018-11-13T02:32:09.125Z,91.24
2018-11-13T02:34:38.276Z,91.96
2018-11-13T02:37:07.459Z,91.50
2018-11-13T02:39:36.689Z,91.29
2018-11-13T02:42:27.371Z,90.92
2018-11-13T02:44:56.567Z,91.70
2018-11-13T02:47:28.028Z,91.73
2018-11-13T02:50:27.439Z,92.48
2018-11-13T02:52:57.352Z,92.38
2018-11-13T02:55:27.799Z,92.78
2018-11-13T02:57:58.078Z,92.92
2018-11-13T03:00:27.398Z,92.13
2018-11-13T03:02:59.920Z,93.10
2018-11-13T03:05:32.964Z,92.42
2018-11-13T03:19:05.999Z,92.21
2018-11-13T03:21:48.363Z,92.86
2018-11-13T03:24:17.651Z,92.63
2018-11-13T03:26:50.066Z,93.59
2018-11-13T03:29:19.215Z,92.76
2018-11-13T03:31:48.500Z,92.88
2018-11-13T03:34:19.682Z,93.48
2018-11-13T03:39:59.955Z,92.67
2018-11-13T03:57:13.964Z,93.24
2018-11-13T03:59:43.921Z,92.29
2018-11-13T04:02:13.169Z,92.27
2018-11-13T04:04:43.421Z,94.17
2018-11-13T04:07:12.747Z,93.13
2018-11-13T04:09:41.969Z,92.38
2018-11-13T04:12:32.839Z,92.47
2018-11-13T04:19:20.223Z,93.27
2018-11-13T04:22:05.042Z,93.35
2018-11-13T04:24:34.692Z,92.30
2018-11-13T04:27:03.934Z,93.56
2018-11-13T04:29:38.764Z,92.77
2018-11-13T04:32:08.171Z,93.04
2018-11-13T04:40:57.967Z,92.05
2018-11-13T05:06:21.383Z,93.50
2018-11-13T05:08:50.600Z,92.48
2018-11-13T05:11:20.072Z,93.51
2018-11-13T05:13:50.176Z,92.58
2018-11-13T05:16:22.209Z,93.01
2018-11-13T05:18:59.046Z,93.33
2018-11-13T05:21:28.420Z,92.80
2018-11-13T05:23:57.666Z,93.14
2018-11-13T05:26:28.918Z,92.95
2018-11-13T05:46:04.094Z,93.85
2018-11-13T05:48:33.362Z,94.99
2018-11-13T05:51:04.438Z,95.29
2018-11-13T05:53:36.886Z,94.59
2018-11-13T05:56:07.543Z,93.53
2018-11-13T05:58:36.999Z,94.17
2018-11-13T06:01:06.170Z,95.43
2018-11-13T06:03:36.561Z,94.85
2018-11-13T06:06:06.204Z,95.12
2018-11-13T06:08:36.131Z,94.93
2018-11-13T06:11:05.414Z,94.18
2018-11-13T06:13:38.027Z,95.24
2018-11-13T06:16:08.190Z,95.14
2018-11-13T06:18:37.315Z,94.56
2018-11-13T06:21:06.452Z,94.35
2018-11-13T06:23:36.432Z,94.44
2018-11-13T06:26:05.587Z,94.13
2018-11-13T06:28:36.942Z,94.28
2018-11-13T06:31:06.029Z,94.78
2018-11-13T06:33:35.806Z,93.56
2018-11-13T06:36:05.188Z,93.80
2018-11-13T06:38:34.438Z,94.07
2018-11-13T06:41:03.519Z,93.13
2018-11-13T06:43:37.540Z,93.54
2018-11-13T06:46:07.083Z,93.75
2018-11-13T06:48:36.215Z,92.94
2018-11-13T06:51:05.275Z,93.29
2018-11-13T06:54:49.509Z,93.19
2018-11-13T06:57:18.677Z,94.37
2018-11-13T06:59:47.771Z,93.74
2018-11-13T07:02:17.407Z,94.54
2018-11-13T07:04:47.502Z,93.88
2018-11-13T07:07:16.563Z,93.17
2018-11-13T07:09:45.624Z,93.75
2018-11-13T07:12:14.725Z,92.93
2018-11-13T07:14:44.000Z,93.22
2018-11-13T07:17:13.705Z,94.27
2018-11-13T07:19:42.971Z,93.72
2018-11-13T07:22:12.292Z,93.86
2018-11-13T07:24:41.668Z,93.59
2018-11-13T07:27:11.913Z,93.50
2018-11-13T07:29:41.093Z,93.00
2018-11-13T07:32:10.229Z,93.18
2018-11-13T07:34:39.306Z,93.25
2018-11-13T07:37:08.399Z,92.94
2018-11-13T07:39:38.134Z,91.98
2018-11-13T07:42:07.208Z,92.18
2018-11-13T07:44:37.532Z,92.16
2018-11-13T07:47:06.703Z,92.62
2018-11-13T07:49:35.738Z,92.26
2018-11-13T07:52:13.350Z,92.15
2018-11-13T07:54:43.418Z,91.58
2018-11-13T07:57:12.573Z,92.11
2018-11-13T07:59:41.666Z,91.60
2018-11-13T08:02:10.748Z,91.24
2018-11-13T08:04:40.425Z,91.12
2018-11-13T08:07:11.137Z,91.05
2018-11-13T08:09:44.527Z,91.14
2018-11-13T08:12:13.708Z,90.59
2018-11-13T08:14:43.197Z,90.69
2018-11-13T08:17:12.436Z,89.73
2018-11-13T08:19:56.559Z,90.31
2018-11-13T08:22:25.695Z,90.26
2018-11-13T08:24:57.155Z,89.68
2018-11-13T08:27:26.247Z,89.66
2018-11-13T08:29:55.321Z,89.74
2018-11-13T08:32:27.644Z,90.02
2018-11-13T08:34:59.597Z,90.41
2018-11-13T08:37:29.697Z,89.52
2018-11-13T08:40:01.984Z,89.46
2018-11-13T08:42:31.035Z,89.70
2018-11-13T08:45:03.919Z,88.86
2018-11-13T08:47:33.390Z,89.47
2018-11-13T08:50:02.463Z,90.42
2018-11-13T08:52:32.211Z,90.42
2018-11-13T08:55:09.833Z,89.98
2018-11-13T08:57:38.979Z,89.97
2018-11-13T09:00:11.221Z,89.77
2018-11-13T09:02:41.582Z,89.63
2018-11-13T09:05:11.845Z,89.44
2018-11-13T09:07:45.675Z,87.48
2018-11-13T09:10:24.353Z,87.02
2018-11-13T09:12:54.430Z,87.70
2018-11-13T09:15:30.830Z,87.56
2018-11-13T09:18:00.726Z,87.01
2018-11-13T09:20:29.843Z,87.47
2018-11-13T09:22:59.584Z,87.68
2018-11-13T09:25:32.460Z,87.32
2018-11-13T09:28:03.350Z,86.44
2018-11-13T09:30:32.898Z,86.13
2018-11-13T09:33:01.940Z,86.42
2018-11-13T09:35:34.629Z,86.84
2018-11-13T09:38:05.404Z,85.19
2018-11-13T09:40:34.507Z,86.27
2018-11-13T09:43:04.886Z,83.19
2018-11-13T09:45:36.141Z,83.59
2018-11-13T09:48:06.580Z,82.14
2018-11-13T09:50:36.866Z,82.06
2018-11-13T09:53:10.062Z,80.52
2018-11-13T09:55:55.839Z,82.24
2018-11-13T09:58:26.302Z,80.32
2018-11-13T10:00:55.950Z,81.01
2018-11-13T10:03:32.432Z,79.08
2018-11-13T10:06:02.257Z,80.34
2018-11-13T10:08:31.344Z,80.24
2018-11-13T10:11:00.961Z,79.47
2018-11-13T10:13:33.540Z,80.02
2018-11-13T10:16:05.982Z,78.01
2018-11-13T10:18:36.854Z,79.31
2018-11-13T10:21:18.178Z,77.43
2018-11-13T10:23:47.844Z,77.69
2018-11-13T10:26:19.606Z,77.67
2018-11-13T10:31:25.957Z,78.59
2018-11-13T10:33:56.382Z,75.87
2018-11-13T10:36:30.618Z,75.13
2018-11-13T10:38:59.691Z,75.45
2018-11-13T10:41:38.926Z,75.52
2018-11-13T10:44:12.357Z,76.52
2018-11-13T10:46:42.209Z,76.06
2018-11-13T10:49:11.372Z,75.66
2018-11-13T10:51:40.410Z,75.39
2018-11-13T10:54:11.428Z,79.05
2018-11-13T10:56:40.482Z,76.90
2018-11-13T10:59:09.565Z,76.41
2018-11-13T11:01:44.736Z,76.87
2018-11-13T11:04:25.719Z,75.96
2018-11-13T11:07:00.332Z,76.58
2018-11-13T11:09:34.020Z,76.09
2018-11-13T11:12:04.154Z,77.07
2018-11-13T11:14:33.222Z,77.43
2018-11-13T11:17:04.644Z,75.56
2018-11-13T11:19:34.714Z,76.14
2018-11-13T11:22:06.120Z,76.49
2018-11-13T11:24:35.269Z,76.72
2018-11-13T11:27:12.767Z,77.61
2018-11-13T11:29:41.925Z,77.36
2018-11-13T11:32:11.044Z,76.23
2018-11-13T11:34:45.259Z,76.89
2018-11-13T11:37:16.278Z,77.62
2018-11-13T11:39:50.355Z,77.15
2018-11-13T11:42:21.094Z,78.34
2018-11-13T11:44:50.270Z,76.88
2018-11-13T11:47:26.109Z,77.33
2018-11-13T11:49:55.466Z,76.32
2018-11-13T11:52:24.601Z,76.96
2018-11-13T11:55:03.774Z,75.45
2018-11-13T11:57:34.654Z,76.81
2018-11-13T12:00:06.367Z,74.67
2018-11-13T12:02:37.267Z,76.17
2018-11-13T12:05:10.004Z,76.05
2018-11-13T12:07:45.943Z,77.47
2018-11-13T12:10:20.094Z,77.19
2018-11-13T12:12:50.481Z,75.36
2018-11-13T12:15:20.423Z,76.12
2018-11-13T12:17:50.724Z,76.07
2018-11-13T12:20:21.096Z,74.71
2018-11-13T12:22:53.892Z,75.24
2018-11-13T12:25:24.615Z,74.49
2018-11-13T12:27:55.443Z,74.14
2018-11-13T12:30:28.215Z,74.16
2018-11-13T12:32:58.026Z,75.58
2018-11-13T12:35:28.016Z,74.16
2018-11-13T12:37:58.078Z,75.80
2018-11-13T12:40:27.219Z,74.58
2018-11-13T12:42:56.298Z,76.28
2018-11-13T12:45:25.964Z,75.00
2018-11-13T12:52:19.058Z,75.89
2018-11-13T12:54:48.562Z,75.92
2018-11-13T12:57:19.869Z,73.66
2018-11-13T12:59:49.175Z,74.80
2018-11-13T13:02:24.960Z,74.22
2018-11-13T13:04:54.143Z,75.88
2018-11-13T13:07:29.037Z,74.92
2018-11-13T13:09:59.453Z,74.65
2018-11-13T13:12:28.601Z,75.35
2018-11-13T13:15:01.913Z,73.71
2018-11-13T13:17:33.612Z,73.68
2018-11-13T13:20:05.569Z,74.14
2018-11-13T13:22:34.710Z,73.90
2018-11-13T13:25:04.192Z,74.55
2018-11-13T13:27:33.419Z,73.61
2018-11-13T13:30:03.392Z,74.48
2018-11-13T13:32:32.481Z,74.49
2018-11-13T13:36:06.030Z,75.52
2018-11-13T13:38:45.269Z,73.58
2018-11-13T13:44:31.454Z,74.76
2018-11-13T13:47:00.708Z,74.83
2018-11-13T13:49:29.866Z,76.08
2018-11-13T13:51:59.328Z,75.75
2018-11-13T13:54:29.490Z,75.59
2018-11-13T13:56:59.104Z,76.24
2018-11-13T13:59:37.473Z,75.14
2018-11-13T14:02:08.049Z,75.53
2018-11-13T14:04:37.375Z,75.22
2018-11-13T14:07:06.669Z,75.12
2018-11-13T14:09:40.278Z,76.02
2018-11-13T14:12:09.421Z,76.38
2018-11-13T14:14:38.654Z,75.50
2018-11-13T14:17:14.005Z,75.99
2018-11-13T14:19:47.742Z,76.40
2018-11-13T14:22:19.423Z,76.47
2018-11-13T14:24:55.885Z,75.63
2018-11-13T14:27:33.071Z,76.73
2018-11-13T14:30:19.022Z,77.20
2018-11-13T14:32:50.389Z,76.92
2018-11-13T14:35:23.052Z,77.09
2018-11-13T14:37:59.256Z,76.62
2018-11-13T14:40:38.422Z,77.36
2018-11-13T14:43:12.310Z,76.69
2018-11-13T14:45:45.348Z,75.90
2018-11-13T14:48:14.659Z,76.82
2018-11-13T14:50:50.480Z,75.86
2018-11-13T14:53:19.718Z,77.16
2018-11-13T14:55:54.015Z,77.84
2018-11-13T14:58:26.146Z,76.79
2018-11-13T15:03:37.260Z,77.48
2018-11-13T15:06:13.329Z,76.79
2018-11-13T15:08:44.890Z,77.69
2018-11-13T15:12:19.011Z,77.04
2018-11-13T15:14:49.557Z,77.09
2018-11-13T15:17:20.927Z,77.26
2018-11-13T15:19:57.342Z,77.63
2018-11-13T15:22:29.825Z,77.73
2018-11-13T15:25:00.059Z,77.46
2018-11-13T15:27:52.491Z,77.84
2018-11-13T15:35:13.298Z,78.25
2018-11-13T15:37:43.807Z,78.16
2018-11-13T15:40:17.233Z,77.99
2018-11-13T15:42:47.647Z,78.62
2018-11-13T15:45:22.148Z,77.94
2018-11-13T15:47:52.246Z,77.67
2018-11-13T15:54:35.356Z,78.01
2018-11-13T16:03:31.367Z,79.06
2018-11-13T16:30:30.675Z,79.42
2018-11-13T16:32:59.903Z,79.66
2018-11-13T16:35:29.642Z,80.75
2018-11-13T16:37:59.663Z,80.11
2018-11-13T16:40:30.176Z,80.63
2018-11-13T16:42:59.414Z,80.13
2018-11-13T16:45:29.603Z,80.06
2018-11-13T16:47:59.332Z,80.54
2018-11-13T16:50:35.482Z,79.79
2018-11-13T16:53:05.022Z,79.71
2018-11-13T16:55:39.392Z,79.10
2018-11-13T16:58:11.057Z,78.90
2018-11-13T17:00:41.107Z,79.06
2018-11-13T17:03:10.176Z,78.40
2018-11-13T17:05:39.359Z,79.37
2018-11-13T17:08:08.329Z,79.87
2018-11-13T17:10:40.198Z,79.40
2018-11-13T17:13:09.255Z,79.21
2018-11-13T17:15:38.483Z,78.86
2018-11-13T17:18:07.810Z,78.74
2018-11-13T17:20:36.980Z,78.95
2018-11-13T17:23:06.031Z,80.20
2018-11-13T17:25:36.572Z,79.82
2018-11-13T17:28:06.246Z,80.26
2018-11-13T17:30:36.132Z,81.19
2018-11-13T17:33:07.653Z,80.26
2018-11-13T17:35:36.766Z,80.34
2018-11-13T17:38:06.971Z,80.99
2018-11-13T17:40:36.998Z,80.00
2018-11-13T17:43:07.590Z,80.92
2018-11-13T17:45:39.184Z,81.90
2018-11-13T17:48:11.267Z,81.87
2018-11-13T17:50:42.481Z,81.17
2018-11-13T17:53:14.177Z,82.06
2018-11-13T17:55:43.279Z,81.51
2018-11-13T17:58:14.263Z,82.32
2018-11-13T18:00:46.960Z,82.46
2018-11-13T18:03:25.647Z,83.11
2018-11-13T18:05:55.386Z,82.37
2018-11-13T18:08:25.328Z,83.28
2018-11-13T18:10:58.975Z,82.94
2018-11-13T18:13:39.759Z,82.40
2018-11-13T18:16:11.412Z,81.73
2018-11-13T18:18:41.476Z,80.92
2018-11-13T18:21:15.875Z,81.69
2018-11-13T18:23:46.271Z,81.33
2018-11-13T18:26:20.071Z,81.15
2018-11-13T18:28:50.911Z,82.12
2018-11-13T18:31:21.682Z,84.31
2018-11-13T18:33:52.837Z,83.46
2018-11-13T18:36:22.933Z,83.12
2018-11-13T18:38:53.574Z,83.50
2018-11-13T18:41:26.751Z,82.37
2018-11-13T18:43:56.114Z,83.40
2018-11-13T18:46:25.326Z,82.93
2018-11-13T18:48:54.466Z,83.13
2018-11-13T18:51:25.685Z,82.02
2018-11-13T18:53:54.915Z,81.81
2018-11-13T18:56:24.041Z,81.20
2018-11-13T18:58:53.222Z,81.07
2018-11-13T19:01:23.035Z,81.11
2018-11-13T19:03:52.217Z,80.65
2018-11-13T19:06:21.422Z,80.95
2018-11-13T19:08:50.537Z,82.56
2018-11-13T19:11:19.749Z,81.80
2018-11-13T19:13:51.881Z,81.67
2018-11-13T19:16:21.461Z,83.30
2018-11-13T19:18:50.652Z,82.00
2018-11-13T19:21:23.194Z,81.58
2018-11-13T19:23:53.532Z,81.14
2018-11-13T19:26:22.629Z,81.16
2018-11-13T19:28:51.718Z,80.68
2018-11-13T19:31:22.535Z,80.89
2018-11-13T19:33:53.315Z,81.01
2018-11-13T19:36:22.556Z,81.52
2018-11-13T19:38:51.712Z,81.32
2018-11-13T19:41:20.764Z,81.06
2018-11-13T19:43:51.499Z,81.18
2018-11-13T19:46:20.548Z,81.08
2018-11-13T19:48:49.672Z,80.72
2018-11-13T19:51:19.020Z,80.61
2018-11-13T19:53:48.220Z,80.75
2018-11-13T19:56:18.266Z,80.96
2018-11-13T19:58:48.343Z,80.09
2018-11-13T20:01:17.420Z,80.29
2018-11-13T20:03:46.838Z,80.29
2018-11-13T20:06:16.555Z,80.46
2018-11-13T20:08:45.668Z,80.00
2018-11-13T20:11:14.753Z,80.25
2018-11-13T20:13:43.801Z,79.87
2018-11-13T20:16:12.953Z,80.43
2018-11-13T20:18:42.081Z,80.21
2018-11-13T20:21:11.175Z,80.49
2018-11-13T20:23:40.283Z,80.22
2018-11-13T20:26:09.535Z,80.50
2018-11-13T20:28:39.854Z,80.10
2018-11-13T20:31:09.039Z,79.75
2018-11-13T20:33:44.984Z,79.76
2018-11-13T20:36:15.256Z,79.96
2018-11-13T20:38:44.354Z,79.77
2018-11-13T20:41:13.590Z,79.93
2018-11-13T20:43:42.683Z,81.08
2018-11-13T20:46:11.788Z,80.84
2018-11-13T20:48:41.338Z,81.09
2018-11-13T20:51:10.470Z,80.55
2018-11-13T20:53:46.882Z,80.80
2018-11-13T20:56:18.017Z,80.63
2018-11-13T20:58:47.131Z,81.58
2018-11-13T21:01:16.249Z,81.06
2018-11-13T21:03:45.419Z,80.92
2018-11-13T21:06:14.650Z,81.08
2018-11-13T21:08:43.796Z,81.17
2018-11-13T21:11:12.938Z,81.93
2018-11-13T21:13:41.980Z,80.75
2018-11-13T21:16:11.128Z,81.44
2018-11-13T21:18:42.145Z,81.37
2018-11-13T21:21:11.221Z,81.32
2018-11-13T21:23:40.324Z,82.03
2018-11-13T21:26:09.318Z,81.22
2018-11-13T21:28:38.425Z,80.55
2018-11-13T21:31:07.692Z,81.66
2018-11-13T21:33:36.746Z,81.16
2018-11-13T21:36:05.822Z,81.47
2018-11-13T21:38:34.880Z,81.98
2018-11-13T21:41:04.001Z,81.48
2018-11-13T21:43:33.144Z,81.46
2018-11-13T21:46:02.182Z,82.07
2018-11-13T21:48:31.272Z,82.03
2018-11-13T21:51:00.561Z,82.18
2018-11-13T21:53:29.593Z,82.57
2018-11-13T21:55:58.681Z,81.89
2018-11-13T21:58:27.734Z,82.47
2018-11-13T22:00:57.227Z,81.76
2018-11-13T22:03:26.402Z,81.74
2018-11-13T22:05:55.470Z,82.04
2018-11-13T22:08:24.532Z,82.19
2018-11-13T22:10:53.548Z,83.93
2018-11-13T22:13:22.612Z,82.77
2018-11-13T22:15:51.657Z,82.23
2018-11-13T22:18:20.702Z,81.96
2018-11-13T22:20:51.243Z,81.98
2018-11-13T22:23:20.325Z,84.09
2018-11-13T22:25:49.351Z,82.12
2018-11-13T22:28:18.945Z,81.62
2018-11-13T22:30:49.591Z,82.28
2018-11-13T22:33:18.591Z,83.61
2018-11-13T22:35:47.666Z,82.09
2018-11-13T22:38:16.848Z,83.11
2018-11-13T22:40:46.063Z,82.41
2018-11-13T22:43:16.087Z,82.85
2018-11-13T22:45:45.140Z,85.69
2018-11-13T22:48:14.187Z,83.17
2018-11-13T22:50:43.299Z,82.58
2018-11-13T22:53:12.301Z,83.20
2018-11-13T22:55:41.382Z,82.78
2018-11-13T22:58:10.430Z,83.44
2018-11-13T23:00:41.724Z,82.26
2018-11-13T23:03:12.922Z,82.71
2018-11-13T23:05:42.508Z,82.79
2018-11-13T23:08:13.966Z,82.51
2018-11-13T23:10:43.059Z,82.69
2018-11-13T23:13:13.069Z,82.75
2018-11-13T23:15:42.358Z,81.97
2018-11-13T23:18:11.392Z,82.28
2018-11-13T23:20:40.480Z,82.38
2018-11-13T23:23:09.567Z,82.57
2018-11-13T23:25:38.636Z,82.54
2018-11-13T23:28:07.765Z,82.08
2018-11-13T23:30:36.765Z,82.16
2018-11-13T23:33:06.611Z,81.73
2018-11-13T23:35:35.277Z,82.10
2018-11-13T23:38:04.346Z,81.82
2018-11-13T23:40:33.453Z,82.12
2018-11-13T23:43:02.483Z,82.23
2018-11-13T23:45:31.529Z,81.75
2018-11-13T23:48:00.852Z,82.28
2018-11-13T23:50:29.641Z,82.20
2018-11-13T23:52:58.694Z,82.10
2018-11-13T23:55:27.805Z,82.23
2018-11-13T23:57:56.858Z,82.39
